Time;durP1;ratioP1;P1;durP2;ratioP2;P2;SDS_P1;SDS_P2;PMS_P1;PMS_P2;Temp;Humidity;BMP_temperature;BMP_pressure;BME280_temperature;BME280_humidity;BME280_pressure;Samples;Min_cycle;Max_cycle;Signal;HPM_P1;HPM_P2
2021/01/23 00:01:23;;;;;;;6.88;4.68;;;5.70;79.00;;;;;;4902918;29;20031;-77
2021/01/23 00:03:50;;;;;;;5.35;3.97;;;5.70;79.00;;;;;;4899928;29;20040;-79
2021/01/23 00:06:16;;;;;;;4.97;4.07;;;5.60;78.90;;;;;;4916969;29;20035;-77
2021/01/23 00:08:42;;;;;;;5.00;4.10;;;5.60;79.00;;;;;;4924142;29;20032;-78
2021/01/23 00:11:08;;;;;;;5.70;4.25;;;5.60;78.90;;;;;;4926654;29;20555;-76
2021/01/23 00:13:34;;;;;;;4.88;3.60;;;5.60;78.90;;;;;;4936670;29;20114;-77
2021/01/23 00:15:59;;;;;;;5.78;4.43;;;5.60;79.00;;;;;;4934465;29;20038;-76
2021/01/23 00:18:25;;;;;;;5.28;4.10;;;5.60;78.90;;;;;;4936921;29;20035;-76
2021/01/23 00:20:51;;;;;;;5.50;4.20;;;5.50;78.90;;;;;;4917179;29;20460;-77
2021/01/23 00:23:17;;;;;;;5.90;4.25;;;5.50;78.90;;;;;;4934108;29;20043;-78
2021/01/23 00:25:42;;;;;;;5.90;4.03;;;5.50;78.90;;;;;;4915416;29;20031;-77
2021/01/23 00:28:08;;;;;;;5.72;4.15;;;5.50;78.90;;;;;;4932407;29;20091;-76
2021/01/23 00:30:34;;;;;;;6.72;4.32;;;5.50;78.90;;;;;;4933606;29;20122;-76
2021/01/23 00:33:00;;;;;;;4.45;3.72;;;5.50;79.00;;;;;;4928380;29;20541;-76
2021/01/23 00:35:25;;;;;;;5.20;4.05;;;5.50;79.00;;;;;;4933778;29;20519;-76
2021/01/23 00:37:53;;;;;;;5.88;4.53;;;5.40;78.90;;;;;;4933761;29;20063;-76
2021/01/23 00:40:19;;;;;;;6.40;4.57;;;5.40;78.90;;;;;;4938035;28;20050;-77
2021/01/23 00:42:44;;;;;;;7.47;4.80;;;5.40;78.90;;;;;;4948806;29;20040;-77
2021/01/23 00:45:11;;;;;;;7.03;4.30;;;5.40;78.90;;;;;;4916500;29;20036;-78
2021/01/23 00:47:36;;;;;;;5.40;4.03;;;5.40;79.00;;;;;;4935453;29;20058;-77
2021/01/23 00:50:03;;;;;;;6.13;4.28;;;5.30;78.90;;;;;;4938130;29;20077;-76
2021/01/23 00:52:30;;;;;;;5.75;4.10;;;5.30;79.00;;;;;;4943276;29;20034;-76
2021/01/23 00:54:56;;;;;;;5.20;3.95;;;5.40;79.00;;;;;;4934252;29;20035;-76
2021/01/23 00:57:22;;;;;;;5.80;4.18;;;5.30;79.00;;;;;;4936454;29;20028;-77
2021/01/23 00:59:48;;;;;;;6.20;4.28;;;5.30;79.00;;;;;;4934677;29;20104;-77
2021/01/23 01:02:14;;;;;;;5.10;3.78;;;5.30;79.00;;;;;;4905038;29;20062;-77
2021/01/23 01:04:42;;;;;;;5.43;3.85;;;5.30;79.00;;;;;;4917141;29;20032;-77
2021/01/23 01:07:08;;;;;;;5.88;3.95;;;5.30;79.00;;;;;;4920022;29;20046;-77
2021/01/23 01:09:34;;;;;;;5.95;4.25;;;5.30;79.00;;;;;;4929266;28;20404;-77
2021/01/23 01:11:59;;;;;;;5.38;4.00;;;5.30;79.00;;;;;;4933502;29;20476;-77
2021/01/23 01:14:25;;;;;;;5.97;4.50;;;5.20;79.00;;;;;;4957943;28;20038;-78
2021/01/23 01:16:51;;;;;;;6.07;4.28;;;5.20;79.00;;;;;;4936356;29;20435;-76
2021/01/23 01:19:17;;;;;;;5.15;4.03;;;5.20;79.00;;;;;;4927954;28;20030;-76
2021/01/23 01:21:42;;;;;;;6.15;4.15;;;5.20;79.00;;;;;;4920058;29;20063;-77
2021/01/23 01:24:08;;;;;;;5.25;3.65;;;5.20;79.00;;;;;;4940717;29;20093;-76
2021/01/23 01:26:34;;;;;;;5.20;4.05;;;5.20;79.00;;;;;;4924645;28;20027;-76
2021/01/23 01:29:00;;;;;;;5.45;3.95;;;5.20;79.10;;;;;;4956355;28;20042;-76
2021/01/23 01:31:26;;;;;;;5.95;4.13;;;5.20;79.00;;;;;;4935724;29;20028;-77
2021/01/23 01:33:51;;;;;;;7.10;3.80;;;5.10;79.00;;;;;;4917766;29;20031;-76
2021/01/23 01:36:17;;;;;;;5.60;4.07;;;5.10;79.10;;;;;;4920321;28;20035;-77
2021/01/23 01:38:43;;;;;;;5.80;4.43;;;5.10;79.00;;;;;;4943105;28;20031;-76
2021/01/23 01:41:08;;;;;;;4.90;3.72;;;5.10;79.10;;;;;;4952402;28;20484;-76
2021/01/23 01:43:34;;;;;;;5.10;3.85;;;5.10;79.10;;;;;;4923389;28;20464;-77
2021/01/23 01:46:02;;;;;;;4.82;3.58;;;5.10;79.10;;;;;;4930542;28;20039;-76
2021/01/23 01:48:27;;;;;;;5.72;4.22;;;5.10;79.10;;;;;;4918289;29;20252;-76
2021/01/23 01:50:54;;;;;;;5.63;4.22;;;5.10;79.10;;;;;;4940077;29;20046;-77
2021/01/23 01:53:21;;;;;;;5.38;4.22;;;5.10;79.10;;;;;;4936657;29;20040;-76
2021/01/23 01:55:49;;;;;;;6.60;4.05;;;5.10;79.10;;;;;;4958849;28;20384;-77
2021/01/23 01:58:16;;;;;;;5.38;3.97;;;5.10;79.10;;;;;;4958535;28;20027;-76
2021/01/23 02:00:41;;;;;;;5.00;3.65;;;5.10;79.10;;;;;;4939707;29;20102;-76
2021/01/23 02:03:19;;;;;;;5.63;4.30;;;5.10;79.10;;;;;;4935434;29;20123;-76
2021/01/23 02:06:10;;;;;;;5.50;3.97;;;5.00;79.10;;;;;;4967630;28;20107;-77
2021/01/23 02:09:05;;;;;;;6.85;3.85;;;5.00;79.20;;;;;;4958061;28;20023;-77
2021/01/23 02:12:15;;;;;;;5.35;3.67;;;5.00;79.10;;;;;;4947425;28;20046;-78
2021/01/23 02:14:41;;;;;;;5.30;4.00;;;5.00;79.20;;;;;;4952986;28;20027;-76
2021/01/23 02:17:14;;;;;;;5.22;3.83;;;5.00;79.00;;;;;;4960302;28;20539;-77
2021/01/23 02:19:55;;;;;;;4.95;3.88;;;5.00;79.20;;;;;;4942063;29;20027;-76
2021/01/23 02:22:32;;;;;;;7.43;4.03;;;4.90;79.20;;;;;;4949448;28;20036;-76
2021/01/23 02:25:00;;;;;;;5.43;4.28;;;4.90;79.20;;;;;;4963685;28;20481;-77
2021/01/23 02:27:46;;;;;;;6.22;4.18;;;4.90;79.20;;;;;;4952102;28;20058;-77
2021/01/23 02:30:23;;;;;;;5.47;3.85;;;4.90;79.30;;;;;;4958499;28;20369;-76
2021/01/23 02:32:53;;;;;;;5.30;4.13;;;4.90;79.30;;;;;;4940380;29;20432;-76
2021/01/23 02:35:19;;;;;;;5.25;4.05;;;4.90;79.20;;;;;;4955251;28;20035;-78
2021/01/23 02:37:47;;;;;;;5.70;4.47;;;4.90;79.20;;;;;;4939555;29;20039;-77
2021/01/23 02:40:13;;;;;;;6.82;4.63;;;4.90;79.20;;;;;;4959065;28;20027;-77
2021/01/23 02:42:39;;;;;;;6.10;4.55;;;4.90;79.20;;;;;;4956518;28;20027;-77
2021/01/23 02:45:08;;;;;;;5.03;4.07;;;4.90;79.20;;;;;;4955177;28;20495;-77
2021/01/23 02:47:34;;;;;;;6.07;4.45;;;4.90;79.20;;;;;;4954467;29;20023;-76
2021/01/23 02:50:00;;;;;;;6.72;4.30;;;4.90;79.20;;;;;;4959030;28;20035;-76
2021/01/23 02:52:49;;;;;;;5.78;3.90;;;4.90;79.20;;;;;;4945656;28;20483;-76
2021/01/23 02:55:19;;;;;;;5.50;4.03;;;4.90;79.30;;;;;;4946687;28;20487;-76
2021/01/23 02:57:47;;;;;;;6.32;4.25;;;4.90;79.20;;;;;;4959715;28;20041;-77
2021/01/23 03:00:15;;;;;;;6.00;4.25;;;4.90;79.20;;;;;;4954258;29;20029;-77
2021/01/23 03:02:54;;;;;;;5.82;4.15;;;4.80;79.40;;;;;;4951691;28;20026;-76
2021/01/23 03:05:22;;;;;;;5.93;4.00;;;4.80;79.30;;;;;;4944118;28;20042;-76
2021/01/23 03:07:54;;;;;;;5.95;4.18;;;4.90;79.30;;;;;;4958729;28;20035;-76
2021/01/23 03:10:32;;;;;;;6.00;4.38;;;4.80;79.20;;;;;;4944591;28;20059;-76
2021/01/23 03:12:58;;;;;;;5.57;4.32;;;4.80;79.40;;;;;;4937937;29;20027;-76
2021/01/23 03:15:24;;;;;;;5.82;4.55;;;4.80;79.20;;;;;;4920081;29;20043;-76
2021/01/23 03:17:49;;;;;;;6.07;4.60;;;4.80;79.30;;;;;;4902009;29;20389;-77
2021/01/23 03:20:15;;;;;;;5.22;4.28;;;4.80;79.30;;;;;;4907406;29;20029;-77
2021/01/23 03:22:41;;;;;;;5.85;4.13;;;4.80;79.30;;;;;;4926465;29;20389;-76
2021/01/23 03:25:07;;;;;;;5.20;3.70;;;4.80;79.30;;;;;;4919327;29;20039;-76
2021/01/23 03:27:32;;;;;;;5.38;4.13;;;4.80;79.30;;;;;;4922410;29;20393;-76
2021/01/23 03:29:58;;;;;;;6.00;4.47;;;4.80;79.40;;;;;;4935825;28;20091;-77
2021/01/23 03:32:24;;;;;;;5.78;4.22;;;4.80;79.40;;;;;;4920702;29;20385;-76
2021/01/23 03:34:49;;;;;;;5.50;4.50;;;4.80;79.40;;;;;;4933963;29;20110;-77
2021/01/23 03:37:15;;;;;;;4.95;4.22;;;4.80;79.40;;;;;;4938255;29;20036;-77
2021/01/23 03:39:41;;;;;;;6.25;4.03;;;4.80;79.40;;;;;;4934617;29;20544;-79
2021/01/23 03:42:07;;;;;;;5.80;4.35;;;4.80;79.40;;;;;;4920747;29;20425;-76
2021/01/23 03:44:32;;;;;;;5.25;4.15;;;4.80;79.40;;;;;;4928344;29;20397;-76
2021/01/23 03:46:58;;;;;;;5.60;4.35;;;4.80;79.40;;;;;;4937035;28;20036;-78
2021/01/23 03:49:24;;;;;;;6.40;4.32;;;4.90;79.50;;;;;;4925089;29;20473;-76
2021/01/23 03:51:50;;;;;;;5.35;4.15;;;4.90;79.50;;;;;;4917703;29;20033;-76
2021/01/23 03:54:15;;;;;;;5.10;3.97;;;4.90;79.50;;;;;;4919016;29;20144;-76
2021/01/23 03:56:41;;;;;;;6.13;4.63;;;4.90;79.50;;;;;;4922272;29;20459;-76
2021/01/23 03:59:07;;;;;;;5.40;4.07;;;4.90;79.50;;;;;;4935550;29;20079;-76
2021/01/23 04:01:32;;;;;;;5.80;4.07;;;4.90;80.20;;;;;;4916085;29;20485;-76
2021/01/23 04:03:58;;;;;;;5.93;4.45;;;4.90;79.50;;;;;;4947669;29;20105;-76
2021/01/23 04:06:24;;;;;;;5.68;4.32;;;4.90;79.50;;;;;;4936917;28;20126;-76
2021/01/23 04:08:49;;;;;;;5.70;4.53;;;4.90;79.50;;;;;;4919502;29;20096;-77
2021/01/23 04:11:15;;;;;;;6.22;4.28;;;4.90;79.50;;;;;;4934279;28;20055;-76
2021/01/23 04:13:41;;;;;;;5.85;4.47;;;4.90;79.50;;;;;;4923174;29;20039;-76
2021/01/23 04:16:07;;;;;;;5.50;4.10;;;4.90;79.50;;;;;;4915201;29;20396;-76
2021/01/23 04:18:32;;;;;;;5.63;4.25;;;4.90;79.50;;;;;;4914583;29;20506;-76
2021/01/23 04:20:58;;;;;;;5.72;4.07;;;4.90;79.50;;;;;;4902122;29;20031;-76
2021/01/23 04:23:24;;;;;;;5.80;3.78;;;4.90;79.50;;;;;;4903038;29;20046;-77
2021/01/23 04:25:50;;;;;;;5.38;4.15;;;5.00;79.60;;;;;;4918151;29;20047;-76
2021/01/23 04:28:15;;;;;;;5.28;4.00;;;5.00;79.60;;;;;;4915287;29;20038;-77
2021/01/23 04:30:43;;;;;;;5.20;3.83;;;5.00;79.60;;;;;;4933279;29;20028;-76
2021/01/23 04:33:09;;;;;;;5.35;3.78;;;5.00;79.60;;;;;;4919603;29;20039;-76
2021/01/23 04:35:35;;;;;;;6.28;4.05;;;5.00;79.60;;;;;;4917790;29;20513;-76
2021/01/23 04:38:00;;;;;;;4.97;3.90;;;5.00;79.60;;;;;;4934125;29;20039;-76
2021/01/23 04:40:28;;;;;;;5.93;4.05;;;5.00;79.60;;;;;;4936662;29;20032;-76
2021/01/23 04:42:55;;;;;;;6.28;4.10;;;5.00;79.70;;;;;;4930468;29;20039;-76
2021/01/23 04:45:21;;;;;;;5.15;3.97;;;5.00;79.70;;;;;;4920845;29;20031;-76
2021/01/23 04:47:50;;;;;;;4.90;3.60;;;5.10;79.70;;;;;;4936293;29;20138;-76
2021/01/23 04:50:16;;;;;;;5.97;3.95;;;5.10;79.70;;;;;;4931568;29;20027;-77
2021/01/23 04:52:42;;;;;;;5.15;3.88;;;5.00;79.70;;;;;;4934135;29;20060;-76
2021/01/23 04:55:09;;;;;;;5.30;3.97;;;5.00;79.70;;;;;;4933765;29;20047;-76
2021/01/23 04:57:35;;;;;;;5.35;4.28;;;5.00;79.70;;;;;;4901823;29;20032;-76
2021/01/23 05:00:01;;;;;;;4.68;3.72;;;5.10;79.70;;;;;;4933622;29;20039;-77
2021/01/23 05:02:27;;;;;;;4.43;3.72;;;5.10;79.70;;;;;;4902720;29;20031;-76
2021/01/23 05:05:01;;;;;;;5.70;3.95;;;5.10;79.70;;;;;;4933062;29;20374;-76
2021/01/23 05:07:38;;;;;;;4.90;3.55;;;5.10;79.70;;;;;;4949860;29;20122;-76
2021/01/23 05:10:15;;;;;;;4.88;3.70;;;5.10;80.30;;;;;;4941842;28;20047;-76
2021/01/23 05:12:44;;;;;;;5.05;3.75;;;5.10;79.70;;;;;;4965055;28;20030;-76
2021/01/23 05:15:19;;;;;;;5.20;3.65;;;5.10;79.70;;;;;;4959830;28;20026;-76
2021/01/23 05:17:58;;;;;;;4.47;3.38;;;5.10;79.80;;;;;;4959216;28;20118;-76
2021/01/23 05:20:33;;;;;;;5.63;4.38;;;5.20;79.80;;;;;;4976332;28;20109;-76
2021/01/23 05:23:00;;;;;;;4.95;3.67;;;5.20;79.80;;;;;;4956137;28;20027;-76
2021/01/23 05:25:30;;;;;;;5.30;3.78;;;5.20;79.70;;;;;;4946818;28;20067;-76
2021/01/23 05:27:57;;;;;;;4.88;3.47;;;5.20;79.80;;;;;;4974358;28;20472;-77
2021/01/23 05:30:24;;;;;;;4.75;3.65;;;5.20;79.70;;;;;;4973865;28;20050;-76
2021/01/23 05:33:27;;;;;;;6.50;4.28;;;5.20;79.80;;;;;;4974638;28;20042;-77
2021/01/23 05:35:59;;;;;;;5.00;3.55;;;5.20;79.90;;;;;;4973332;28;20117;-78
2021/01/23 05:38:45;;;;;;;5.25;3.45;;;5.20;79.80;;;;;;4953538;28;20039;-76
2021/01/23 05:41:14;;;;;;;5.03;3.35;;;5.20;79.70;;;;;;4971684;28;20035;-76
2021/01/23 05:44:00;;;;;;;5.55;3.78;;;5.20;79.70;;;;;;4940148;28;20379;-76
2021/01/23 05:46:26;;;;;;;5.53;4.07;;;5.20;79.90;;;;;;4946561;28;20102;-76
2021/01/23 05:48:52;;;;;;;4.70;3.70;;;5.20;79.70;;;;;;4957720;28;20027;-77
2021/01/23 05:51:19;;;;;;;4.75;3.78;;;5.20;79.70;;;;;;4980708;28;20084;-76
2021/01/23 05:53:45;;;;;;;5.38;3.90;;;5.20;79.70;;;;;;4924396;28;20118;-78
2021/01/23 05:56:12;;;;;;;5.47;4.03;;;5.20;79.70;;;;;;4958717;28;20030;-76
2021/01/23 05:58:39;;;;;;;5.28;3.92;;;5.20;79.70;;;;;;4958158;28;20031;-77
2021/01/23 06:01:09;;;;;;;5.47;3.67;;;5.30;79.80;;;;;;4942753;28;20018;-77
2021/01/23 06:03:37;;;;;;;6.07;3.83;;;5.30;79.80;;;;;;4959354;28;20051;-77
2021/01/23 06:06:03;;;;;;;5.38;4.10;;;5.30;79.70;;;;;;4948583;28;20034;-76
2021/01/23 06:08:40;;;;;;;5.65;3.80;;;5.30;79.70;;;;;;4969475;28;20046;-76
2021/01/23 06:11:28;;;;;;;4.80;3.60;;;5.30;79.80;;;;;;4949497;28;20043;-76
2021/01/23 06:13:58;;;;;;;6.63;4.13;;;5.30;79.70;;;;;;4968266;28;20027;-77
2021/01/23 06:16:33;;;;;;;4.85;3.60;;;5.30;79.70;;;;;;4945197;28;20035;-77
2021/01/23 06:19:04;;;;;;;5.55;3.88;;;5.30;79.80;;;;;;4957433;28;20042;-77
2021/01/23 06:21:42;;;;;;;5.45;3.97;;;5.30;79.70;;;;;;4964736;28;20125;-76
2021/01/23 06:24:15;;;;;;;5.55;4.00;;;5.30;79.80;;;;;;4980741;28;20031;-77
2021/01/23 06:26:53;;;;;;;5.30;3.78;;;5.30;79.70;;;;;;4946320;28;20061;-77
2021/01/23 06:29:39;;;;;;;5.47;4.07;;;5.30;79.80;;;;;;4942201;28;20061;-76
2021/01/23 06:32:14;;;;;;;5.22;3.95;;;5.30;79.90;;;;;;4952851;28;20099;-76
2021/01/23 06:34:47;;;;;;;;;;;5.30;79.80;;;;;;4958676;28;20034;-76
2021/01/23 06:37:20;;;;;;;4.93;3.40;;;5.30;79.70;;;;;;4984080;28;19913;-76
2021/01/23 06:40:06;;;;;;;4.95;3.70;;;5.30;79.60;;;;;;4978127;28;20047;-76
2021/01/23 06:42:35;;;;;;;4.50;3.53;;;5.20;79.70;;;;;;4958790;28;20023;-76
2021/01/23 06:45:20;;;;;;;5.20;4.03;;;5.30;79.70;;;;;;4959107;28;20109;-76
2021/01/23 06:47:54;;;;;;;5.35;3.85;;;5.30;79.90;;;;;;4959701;28;20027;-77
2021/01/23 06:50:34;;;;;;;4.47;3.65;;;5.30;79.70;;;;;;4938066;28;20030;-76
2021/01/23 06:53:02;;;;;;;5.65;4.05;;;5.30;79.80;;;;;;4957214;28;20038;-77
2021/01/23 06:55:42;;;;;;;5.50;4.20;;;5.30;79.80;;;;;;4941852;28;20082;-76
2021/01/23 06:58:18;;;;;;;5.78;4.35;;;5.30;79.90;;;;;;4957982;28;20033;-75
2021/01/23 07:00:46;;;;;;;5.80;4.18;;;5.30;79.80;;;;;;4942439;28;20055;-75
2021/01/23 07:03:13;;;;;;;6.10;4.10;;;5.30;79.70;;;;;;4945090;28;20031;-77
2021/01/23 07:05:49;;;;;;;5.65;4.10;;;5.30;79.80;;;;;;4958262;28;20403;-76
2021/01/23 07:08:25;;;;;;;5.80;4.22;;;5.30;79.90;;;;;;4948347;28;20026;-77
2021/01/23 07:11:17;;;;;;;5.97;4.18;;;5.30;79.90;;;;;;4960285;28;20090;-76
2021/01/23 07:14:06;;;;;;;5.78;4.15;;;5.30;79.90;;;;;;4951537;28;20039;-76
2021/01/23 07:16:37;;;;;;;4.78;3.70;;;5.40;79.90;;;;;;4965298;28;20406;-77
2021/01/23 07:19:08;;;;;;;5.55;3.95;;;5.40;79.80;;;;;;4941845;28;20034;-77
2021/01/23 07:21:38;;;;;;;5.03;3.83;;;5.40;79.80;;;;;;4947357;28;20023;-77
2021/01/23 07:24:04;;;;;;;5.82;4.18;;;5.40;79.80;;;;;;4960340;28;20026;-77
2021/01/23 07:26:31;;;;;;;5.22;3.83;;;5.40;79.80;;;;;;4940975;28;20043;-77
2021/01/23 07:28:58;;;;;;;5.57;4.50;;;5.40;79.80;;;;;;4958687;28;20396;-76
2021/01/23 07:31:28;;;;;;;5.20;3.90;;;5.40;79.80;;;;;;4956324;28;20035;-77
2021/01/23 07:33:55;;;;;;;5.88;4.32;;;5.40;79.90;;;;;;4957450;28;20035;-77
2021/01/23 07:36:34;;;;;;;6.15;4.03;;;5.40;79.80;;;;;;4961340;28;20055;-77
2021/01/23 07:39:14;;;;;;;5.57;4.00;;;5.40;79.90;;;;;;4950823;28;20444;-77
2021/01/23 07:41:46;;;;;;;5.40;3.70;;;5.50;79.90;;;;;;4977149;28;20153;-77
2021/01/23 07:44:12;;;;;;;6.40;4.45;;;5.50;79.90;;;;;;4941552;28;20043;-77
2021/01/23 07:46:40;;;;;;;5.82;4.35;;;5.50;79.80;;;;;;4956704;28;20117;-78
2021/01/23 07:49:08;;;;;;;6.07;4.78;;;5.50;79.80;;;;;;4968142;28;20031;-78
2021/01/23 07:51:34;;;;;;;5.43;4.15;;;5.50;79.80;;;;;;4955770;28;20505;-78
2021/01/23 07:54:13;;;;;;;6.10;4.18;;;5.50;79.80;;;;;;4957716;28;20035;-77
2021/01/23 07:56:53;;;;;;;5.38;3.85;;;5.50;79.90;;;;;;4942027;28;20035;-77
2021/01/23 07:59:20;;;;;;;5.63;3.95;;;5.50;79.90;;;;;;4960125;28;20057;-77
2021/01/23 08:01:46;;;;;;;6.47;4.32;;;5.50;79.90;;;;;;4940886;28;20063;-75
2021/01/23 08:04:31;;;;;;;6.32;4.22;;;5.50;79.80;;;;;;4932014;28;20058;-76
2021/01/23 08:07:25;;;;;;;5.15;4.07;;;5.50;80.00;;;;;;4958972;28;20023;-75
2021/01/23 08:10:06;;;;;;;5.15;3.60;;;5.50;79.90;;;;;;4953048;28;20138;-75
2021/01/23 08:12:32;;;;;;;5.50;3.70;;;5.50;79.90;;;;;;4912655;29;20078;-77
2021/01/23 08:14:59;;;;;;;5.38;3.85;;;5.50;79.80;;;;;;4934533;29;20039;-78
2021/01/23 08:17:45;;;;;;;5.93;4.20;;;5.60;79.90;;;;;;4930212;29;20031;-75
2021/01/23 08:20:12;;;;;;;;;;;5.50;80.00;;;;;;4913258;29;20028;-74
2021/01/23 08:23:20;;;;;;;5.00;3.58;;;5.60;79.80;;;;;;4932505;29;19962;-75
2021/01/23 08:25:49;;;;;;;5.47;3.65;;;5.50;79.80;;;;;;4902475;29;20126;-75
2021/01/23 08:28:35;;;;;;;4.63;3.40;;;5.50;79.70;;;;;;4932712;29;20028;-74
2021/01/23 08:31:14;;;;;;;5.63;3.60;;;5.50;79.80;;;;;;4934367;29;20101;-75
2021/01/23 08:33:40;;;;;;;5.95;4.25;;;5.50;79.90;;;;;;4934654;29;20036;-75
2021/01/23 08:36:06;;;;;;;5.50;4.20;;;5.60;79.90;;;;;;4915109;29;20114;-75
2021/01/23 08:38:32;;;;;;;5.57;4.15;;;5.60;79.90;;;;;;4907546;29;20032;-75
2021/01/23 08:40:58;;;;;;;5.55;3.92;;;5.60;79.90;;;;;;4917533;29;20517;-74
2021/01/23 08:43:23;;;;;;;5.63;4.15;;;5.60;79.90;;;;;;4921545;29;20028;-74
2021/01/23 08:45:49;;;;;;;5.30;3.92;;;5.60;79.90;;;;;;4902324;29;20476;-75
2021/01/23 08:48:16;;;;;;;5.65;4.22;;;5.60;79.90;;;;;;4912312;29;20031;-75
2021/01/23 08:50:42;;;;;;;5.70;4.13;;;5.60;79.90;;;;;;4918693;29;20496;-75
2021/01/23 08:53:08;;;;;;;5.40;4.10;;;5.60;79.90;;;;;;4918186;29;20074;-75
2021/01/23 08:55:33;;;;;;;5.70;3.97;;;5.70;79.90;;;;;;4942524;29;20050;-75
2021/01/23 08:57:59;;;;;;;4.88;3.72;;;5.70;79.90;;;;;;4939989;29;20079;-75
2021/01/23 09:00:25;;;;;;;5.88;4.20;;;5.70;79.90;;;;;;4932454;29;20036;-75
2021/01/23 09:02:50;;;;;;;5.70;4.05;;;5.70;79.90;;;;;;4901990;29;20040;-76
2021/01/23 09:05:16;;;;;;;4.90;4.05;;;5.70;79.90;;;;;;4901272;29;20035;-74
2021/01/23 09:07:42;;;;;;;6.30;4.13;;;5.70;79.90;;;;;;4933805;29;20028;-75
2021/01/23 09:10:10;;;;;;;5.03;4.00;;;5.70;79.90;;;;;;4951169;28;20478;-73
2021/01/23 09:12:36;;;;;;;5.18;4.10;;;5.70;79.90;;;;;;4939042;28;20030;-74
2021/01/23 09:15:04;;;;;;;4.65;3.67;;;5.70;79.90;;;;;;4946078;28;20055;-74
2021/01/23 09:17:30;;;;;;;5.30;4.07;;;5.70;79.90;;;;;;4972236;28;20475;-74
2021/01/23 09:19:56;;;;;;;6.78;4.45;;;5.80;79.90;;;;;;4949941;28;20085;-76
2021/01/23 09:22:21;;;;;;;5.93;3.85;;;5.80;79.90;;;;;;4943096;28;20060;-75
2021/01/23 09:24:47;;;;;;;5.60;3.97;;;5.80;79.90;;;;;;4964500;28;20081;-75
2021/01/23 09:27:13;;;;;;;5.90;3.88;;;5.80;79.90;;;;;;4948656;28;20113;-74
2021/01/23 09:29:39;;;;;;;5.65;3.83;;;5.80;79.90;;;;;;4948488;28;20498;-75
2021/01/23 09:32:06;;;;;;;5.28;4.13;;;5.80;79.90;;;;;;4955838;28;20031;-75
2021/01/23 09:34:33;;;;;;;5.80;3.88;;;5.80;79.90;;;;;;4960095;28;20101;-75
2021/01/23 09:37:01;;;;;;;4.60;3.78;;;5.80;79.90;;;;;;4943711;28;20075;-75
2021/01/23 09:39:27;;;;;;;5.30;4.25;;;5.80;79.90;;;;;;4943003;28;20031;-75
2021/01/23 09:41:53;;;;;;;4.68;3.58;;;5.80;79.90;;;;;;4924860;29;20027;-74
2021/01/23 09:44:18;;;;;;;5.38;4.07;;;5.90;80.00;;;;;;4952761;28;20045;-75
2021/01/23 09:46:44;;;;;;;5.38;3.72;;;5.90;80.00;;;;;;4942516;28;20456;-74
2021/01/23 09:49:10;;;;;;;4.82;3.88;;;5.90;80.00;;;;;;4959034;28;20081;-74
2021/01/23 09:51:36;;;;;;;5.47;3.90;;;5.90;80.00;;;;;;4942627;28;20033;-74
2021/01/23 09:54:01;;;;;;;5.75;3.88;;;5.90;80.00;;;;;;4942854;28;20054;-75
2021/01/23 09:56:27;;;;;;;4.85;3.50;;;5.90;80.00;;;;;;4942993;28;20073;-75
2021/01/23 09:58:53;;;;;;;4.75;3.50;;;5.90;80.00;;;;;;4976411;28;20603;-76
2021/01/23 10:01:20;;;;;;;4.95;3.75;;;6.00;80.00;;;;;;4939919;29;20031;-77
2021/01/23 10:03:46;;;;;;;5.80;3.85;;;5.90;80.00;;;;;;4941859;28;20076;-75
2021/01/23 10:06:11;;;;;;;5.57;4.00;;;6.00;80.00;;;;;;4964559;28;20422;-75
2021/01/23 10:08:37;;;;;;;5.38;3.88;;;6.00;80.00;;;;;;4945015;28;20026;-75
2021/01/23 10:11:03;;;;;;;5.47;3.97;;;6.00;80.00;;;;;;4933183;29;20492;-76
2021/01/23 10:13:29;;;;;;;4.82;3.40;;;6.00;80.10;;;;;;4917430;29;20058;-75
2021/01/23 10:15:55;;;;;;;6.43;3.50;;;6.00;80.00;;;;;;4943226;29;20067;-75
2021/01/23 10:18:20;;;;;;;5.45;3.83;;;6.10;80.10;;;;;;4919896;29;20079;-78
2021/01/23 10:20:46;;;;;;;5.03;3.55;;;6.10;80.10;;;;;;4923717;29;20027;-75
2021/01/23 10:23:12;;;;;;;5.40;3.63;;;6.10;80.10;;;;;;4920813;29;20050;-75
2021/01/23 10:25:38;;;;;;;4.88;3.72;;;6.10;80.10;;;;;;4951024;29;20388;-75
2021/01/23 10:28:04;;;;;;;5.53;3.60;;;6.10;80.10;;;;;;4946118;29;20495;-75
2021/01/23 10:30:30;;;;;;;4.78;3.50;;;6.10;80.10;;;;;;4951646;29;20037;-75
2021/01/23 10:32:57;;;;;;;5.22;3.90;;;6.20;80.10;;;;;;4939088;29;20038;-76
2021/01/23 10:35:23;;;;;;;4.07;3.50;;;6.20;80.20;;;;;;4936072;29;20035;-76
2021/01/23 10:37:48;;;;;;;4.85;3.58;;;6.20;80.10;;;;;;4934359;29;20043;-75
2021/01/23 10:40:15;;;;;;;5.35;3.60;;;6.20;80.10;;;;;;4938563;29;20047;-75
2021/01/23 10:42:41;;;;;;;4.60;3.40;;;6.20;80.10;;;;;;4921304;29;20028;-75
2021/01/23 10:45:07;;;;;;;5.75;3.78;;;6.30;80.20;;;;;;4921527;29;20038;-75
2021/01/23 10:47:38;;;;;;;4.63;3.50;;;6.30;80.20;;;;;;4935862;29;20476;-75
2021/01/23 10:50:05;;;;;;;4.22;3.33;;;6.30;80.20;;;;;;4927501;29;20071;-74
2021/01/23 10:52:31;;;;;;;5.25;3.53;;;6.30;80.20;;;;;;4935315;29;20031;-74
2021/01/23 10:54:56;;;;;;;3.42;3.10;;;6.30;80.20;;;;;;4953837;29;20400;-74
2021/01/23 10:57:22;;;;;;;4.65;3.30;;;6.30;80.20;;;;;;4954072;29;20036;-75
2021/01/23 10:59:48;;;;;;;4.10;3.10;;;6.30;80.30;;;;;;4937865;29;20373;-74
2021/01/23 11:02:14;;;;;;;4.15;3.35;;;6.40;80.40;;;;;;4940779;29;20031;-74
2021/01/23 11:04:40;;;;;;;5.40;3.22;;;6.40;80.30;;;;;;4950416;29;20122;-73
2021/01/23 11:07:05;;;;;;;4.78;3.45;;;6.40;80.30;;;;;;4918149;29;20454;-74
2021/01/23 11:09:31;;;;;;;4.78;3.40;;;6.40;80.30;;;;;;4898294;29;739448;-74
2021/01/23 11:11:57;;;;;;;5.43;3.65;;;6.50;80.40;;;;;;4938272;29;20042;-75
2021/01/23 11:14:23;;;;;;;5.35;3.40;;;6.50;80.40;;;;;;4953916;29;20109;-74
2021/01/23 11:16:49;;;;;;;4.88;3.53;;;6.50;80.30;;;;;;4954413;29;20039;-74
2021/01/23 11:19:16;;;;;;;4.35;3.28;;;6.50;80.40;;;;;;4954526;29;20388;-73
2021/01/23 11:21:42;;;;;;;4.88;3.33;;;6.60;80.40;;;;;;4953604;28;20028;-73
2021/01/23 11:24:08;;;;;;;4.60;3.28;;;6.60;80.40;;;;;;4954548;29;20027;-72
2021/01/23 11:26:34;;;;;;;4.65;3.50;;;6.60;80.30;;;;;;4959511;28;20105;-73
2021/01/23 11:29:00;;;;;;;5.68;3.30;;;6.60;80.30;;;;;;4945081;29;20126;-73
2021/01/23 11:31:25;;;;;;;4.68;3.17;;;6.70;80.30;;;;;;4942209;29;20117;-73
2021/01/23 11:33:51;;;;;;;4.50;3.28;;;6.70;80.30;;;;;;4937698;29;20495;-72
2021/01/23 11:36:18;;;;;;;4.30;3.45;;;6.70;80.30;;;;;;4955092;28;20416;-72
2021/01/23 11:38:45;;;;;;;4.55;2.88;;;6.80;80.30;;;;;;4938214;29;20038;-72
2021/01/23 11:41:11;;;;;;;4.75;3.00;;;6.80;80.30;;;;;;4953989;29;20046;-72
2021/01/23 11:43:37;;;;;;;4.05;2.92;;;6.80;80.30;;;;;;4938072;29;20058;-72
2021/01/23 11:46:03;;;;;;;4.32;3.25;;;6.80;80.30;;;;;;4954241;29;20090;-72
2021/01/23 11:48:30;;;;;;;4.40;3.10;;;6.90;80.30;;;;;;4937337;29;20047;-72
2021/01/23 11:50:57;;;;;;;5.28;3.40;;;6.90;80.30;;;;;;4937930;29;20392;-72
2021/01/23 11:53:23;;;;;;;4.32;3.17;;;6.90;80.30;;;;;;4955707;29;20388;-73
2021/01/23 11:55:49;;;;;;;4.30;3.17;;;6.90;80.30;;;;;;4952778;28;20042;-72
2021/01/23 11:58:16;;;;;;;4.35;3.05;;;7.00;80.40;;;;;;4955257;28;20123;-72
2021/01/23 12:00:41;;;;;;;3.90;3.10;;;7.00;80.40;;;;;;4953865;29;20106;-73
2021/01/23 12:03:07;;;;;;;3.88;2.72;;;7.00;80.40;;;;;;4953506;29;20115;-73
2021/01/23 12:05:33;;;;;;;4.20;2.90;;;7.00;80.40;;;;;;4953329;29;20361;-74
2021/01/23 12:07:59;;;;;;;4.03;3.10;;;7.10;80.40;;;;;;4937735;29;20397;-72
2021/01/23 12:10:26;;;;;;;3.80;3.00;;;7.10;80.40;;;;;;4937742;29;20055;-71
2021/01/23 12:12:51;;;;;;;3.83;2.80;;;7.10;80.40;;;;;;4937565;29;20039;-73
2021/01/23 12:15:18;;;;;;;5.13;2.92;;;7.10;80.40;;;;;;4951540;28;20038;-72
2021/01/23 12:17:44;;;;;;;4.57;3.08;;;7.10;80.40;;;;;;4927910;29;20074;-73
2021/01/23 12:20:10;;;;;;;4.20;3.00;;;7.10;80.40;;;;;;4920317;29;20183;-72
2021/01/23 12:22:37;;;;;;;4.38;3.05;;;7.10;80.40;;;;;;4953378;29;20070;-72
2021/01/23 12:25:07;;;;;;;4.35;2.95;;;7.20;80.40;;;;;;4953758;29;20065;-72
2021/01/23 12:27:34;;;;;;;3.90;2.80;;;7.20;80.40;;;;;;4951604;29;20062;-72
2021/01/23 12:30:03;;;;;;;3.92;3.08;;;7.20;80.40;;;;;;4937236;29;20023;-73
2021/01/23 12:32:29;;;;;;;4.13;3.15;;;7.30;80.40;;;;;;4953205;29;20125;-71
2021/01/23 12:34:54;;;;;;;4.30;3.08;;;7.30;80.30;;;;;;4917137;29;20533;-72
2021/01/23 12:37:20;;;;;;;3.88;2.80;;;7.30;80.40;;;;;;4918088;29;20473;-75
2021/01/23 12:39:46;;;;;;;4.75;3.22;;;7.30;80.30;;;;;;4907588;29;20387;-72
2021/01/23 12:42:11;;;;;;;3.40;2.78;;;7.30;80.30;;;;;;4944587;28;20038;-72
2021/01/23 12:44:37;;;;;;;4.03;2.92;;;7.30;80.30;;;;;;4922770;29;20040;-73
2021/01/23 12:47:03;;;;;;;3.75;2.75;;;7.30;80.30;;;;;;4924153;29;20413;-72
2021/01/23 12:49:29;;;;;;;4.97;2.97;;;7.40;80.40;;;;;;4939328;29;20036;-72
2021/01/23 12:51:54;;;;;;;3.70;2.97;;;7.40;80.40;;;;;;4928935;29;20117;-72
2021/01/23 12:54:20;;;;;;;3.63;2.65;;;7.40;80.40;;;;;;4911696;29;20031;-72
2021/01/23 12:56:46;;;;;;;4.15;3.05;;;7.40;80.40;;;;;;4946579;29;20027;-72
2021/01/23 12:59:12;;;;;;;4.18;2.80;;;7.40;80.40;;;;;;4894428;29;20027;-73
2021/01/23 13:01:41;;;;;;;4.18;3.03;;;7.40;80.40;;;;;;4928642;29;20043;-74
2021/01/23 13:04:07;;;;;;;4.32;3.33;;;7.50;80.50;;;;;;4930819;29;20063;-73
2021/01/23 13:06:34;;;;;;;4.07;3.15;;;7.50;80.50;;;;;;4931978;29;20028;-75